sensor_id;sensor_type;location;lat;lon;timestamp;P1;durP1;ratioP1;P2;durP2;ratioP2
25581;SDS011;13462;50.764;4.332;2022-12-08T00:11:30;58.22;;;27.17;;
25581;SDS011;13462;50.764;4.332;2022-12-08T00:24:57;64.30;;;29.05;;
25581;SDS011;13462;50.764;4.332;2022-12-08T00:51:07;63.63;;;30.33;;
25581;SDS011;13462;50.764;4.332;2022-12-08T00:53:36;73.88;;;33.40;;
25581;SDS011;13462;50.764;4.332;2022-12-08T00:56:05;77.95;;;32.13;;
25581;SDS011;13462;50.764;4.332;2022-12-08T00:58:30;79.03;;;34.95;;
25581;SDS011;13462;50.764;4.332;2022-12-08T01:01:14;80.80;;;35.90;;
25581;SDS011;13462;50.764;4.332;2022-12-08T01:17:24;91.95;;;36.08;;
25581;SDS011;13462;50.764;4.332;2022-12-08T01:20:00;78.00;;;35.42;;
25581;SDS011;13462;50.764;4.332;2022-12-08T01:22:31;87.07;;;36.92;;
25581;SDS011;13462;50.764;4.332;2022-12-08T01:25:04;83.78;;;35.97;;
25581;SDS011;13462;50.764;4.332;2022-12-08T01:27:30;82.05;;;34.83;;
25581;SDS011;13462;50.764;4.332;2022-12-08T01:29:56;92.57;;;37.53;;
25581;SDS011;13462;50.764;4.332;2022-12-08T01:32:31;84.70;;;38.67;;
25581;SDS011;13462;50.764;4.332;2022-12-08T01:36:03;100.25;;;39.38;;
25581;SDS011;13462;50.764;4.332;2022-12-08T01:38:11;97.05;;;40.40;;
25581;SDS011;13462;50.764;4.332;2022-12-08T01:46:35;98.75;;;38.55;;
25581;SDS011;13462;50.764;4.332;2022-12-08T01:55:52;93.32;;;39.92;;
25581;SDS011;13462;50.764;4.332;2022-12-08T01:58:47;101.35;;;40.50;;
25581;SDS011;13462;50.764;4.332;2022-12-08T02:01:40;99.55;;;41.30;;
25581;SDS011;13462;50.764;4.332;2022-12-08T02:04:13;101.03;;;43.95;;
25581;SDS011;13462;50.764;4.332;2022-12-08T02:06:47;103.47;;;41.88;;
25581;SDS011;13462;50.764;4.332;2022-12-08T02:19:55;106.22;;;41.80;;
25581;SDS011;13462;50.764;4.332;2022-12-08T02:35:28;105.07;;;41.63;;
25581;SDS011;13462;50.764;4.332;2022-12-08T02:41:44;90.28;;;39.85;;
25581;SDS011;13462;50.764;4.332;2022-12-08T02:44:25;93.15;;;36.90;;
25581;SDS011;13462;50.764;4.332;2022-12-08T02:55:55;79.25;;;36.33;;
25581;SDS011;13462;50.764;4.332;2022-12-08T03:09:02;77.32;;;34.05;;
25581;SDS011;13462;50.764;4.332;2022-12-08T03:12:05;78.97;;;33.35;;
25581;SDS011;13462;50.764;4.332;2022-12-08T03:14:41;81.47;;;33.92;;
25581;SDS011;13462;50.764;4.332;2022-12-08T03:17:15;86.25;;;33.40;;
25581;SDS011;13462;50.764;4.332;2022-12-08T03:20:06;76.03;;;33.15;;
25581;SDS011;13462;50.764;4.332;2022-12-08T03:22:47;77.45;;;33.10;;
25581;SDS011;13462;50.764;4.332;2022-12-08T03:25:45;76.00;;;34.63;;
25581;SDS011;13462;50.764;4.332;2022-12-08T03:30:56;80.50;;;34.28;;
25581;SDS011;13462;50.764;4.332;2022-12-08T03:33:35;82.72;;;32.60;;
25581;SDS011;13462;50.764;4.332;2022-12-08T03:36:15;73.78;;;30.88;;
25581;SDS011;13462;50.764;4.332;2022-12-08T03:38:50;73.57;;;32.90;;
25581;SDS011;13462;50.764;4.332;2022-12-08T03:44:41;73.07;;;31.98;;
25581;SDS011;13462;50.764;4.332;2022-12-08T03:47:07;73.10;;;32.42;;
25581;SDS011;13462;50.764;4.332;2022-12-08T03:49:33;72.72;;;32.08;;
25581;SDS011;13462;50.764;4.332;2022-12-08T04:02:44;64.35;;;28.73;;
25581;SDS011;13462;50.764;4.332;2022-12-08T04:05:10;63.40;;;29.05;;
25581;SDS011;13462;50.764;4.332;2022-12-08T04:07:38;70.22;;;30.13;;
25581;SDS011;13462;50.764;4.332;2022-12-08T04:10:07;65.07;;;28.23;;
25581;SDS011;13462;50.764;4.332;2022-12-08T04:12:54;73.35;;;30.85;;
25581;SDS011;13462;50.764;4.332;2022-12-08T04:15:26;71.00;;;28.55;;
25581;SDS011;13462;50.764;4.332;2022-12-08T04:17:52;58.88;;;29.42;;
25581;SDS011;13462;50.764;4.332;2022-12-08T04:23:31;65.03;;;29.98;;
25581;SDS011;13462;50.764;4.332;2022-12-08T04:26:06;61.83;;;28.05;;
25581;SDS011;13462;50.764;4.332;2022-12-08T04:31:56;56.72;;;26.63;;
25581;SDS011;13462;50.764;4.332;2022-12-08T04:34:31;65.40;;;28.83;;
25581;SDS011;13462;50.764;4.332;2022-12-08T04:36:57;77.22;;;29.05;;
25581;SDS011;13462;50.764;4.332;2022-12-08T04:39:23;65.57;;;31.15;;
25581;SDS011;13462;50.764;4.332;2022-12-08T04:44:37;71.85;;;30.85;;
25581;SDS011;13462;50.764;4.332;2022-12-08T04:47:06;71.97;;;30.58;;
25581;SDS011;13462;50.764;4.332;2022-12-08T04:50:04;62.97;;;29.10;;
25581;SDS011;13462;50.764;4.332;2022-12-08T04:52:44;62.40;;;30.15;;
25581;SDS011;13462;50.764;4.332;2022-12-08T04:59:04;62.13;;;27.92;;
25581;SDS011;13462;50.764;4.332;2022-12-08T05:05:40;65.38;;;30.05;;
25581;SDS011;13462;50.764;4.332;2022-12-08T05:08:07;67.70;;;31.15;;
25581;SDS011;13462;50.764;4.332;2022-12-08T05:10:34;64.80;;;27.70;;
25581;SDS011;13462;50.764;4.332;2022-12-08T05:15:36;74.85;;;30.40;;
25581;SDS011;13462;50.764;4.332;2022-12-08T05:18:03;63.72;;;28.13;;
25581;SDS011;13462;50.764;4.332;2022-12-08T05:26:43;64.85;;;30.00;;
25581;SDS011;13462;50.764;4.332;2022-12-08T05:36:19;59.10;;;27.77;;
25581;SDS011;13462;50.764;4.332;2022-12-08T05:38:48;61.00;;;27.05;;
25581;SDS011;13462;50.764;4.332;2022-12-08T05:41:42;67.80;;;28.15;;
25581;SDS011;13462;50.764;4.332;2022-12-08T05:44:17;64.55;;;27.52;;
25581;SDS011;13462;50.764;4.332;2022-12-08T05:47:28;60.85;;;27.15;;
25581;SDS011;13462;50.764;4.332;2022-12-08T05:49:53;56.42;;;25.63;;
25581;SDS011;13462;50.764;4.332;2022-12-08T05:55:14;64.05;;;27.30;;
25581;SDS011;13462;50.764;4.332;2022-12-08T05:57:40;68.63;;;26.73;;
25581;SDS011;13462;50.764;4.332;2022-12-08T06:00:05;62.40;;;27.13;;
25581;SDS011;13462;50.764;4.332;2022-12-08T06:02:31;60.08;;;27.80;;
25581;SDS011;13462;50.764;4.332;2022-12-08T06:04:57;59.58;;;26.10;;
25581;SDS011;13462;50.764;4.332;2022-12-08T06:07:23;60.35;;;28.58;;
25581;SDS011;13462;50.764;4.332;2022-12-08T06:09:49;70.63;;;27.70;;
25581;SDS011;13462;50.764;4.332;2022-12-08T06:12:14;60.50;;;25.25;;
25581;SDS011;13462;50.764;4.332;2022-12-08T06:14:40;60.45;;;26.95;;
25581;SDS011;13462;50.764;4.332;2022-12-08T06:17:06;60.67;;;26.08;;
25581;SDS011;13462;50.764;4.332;2022-12-08T06:19:31;61.65;;;25.77;;
25581;SDS011;13462;50.764;4.332;2022-12-08T06:21:57;58.80;;;26.27;;
25581;SDS011;13462;50.764;4.332;2022-12-08T06:24:22;54.80;;;25.45;;
25581;SDS011;13462;50.764;4.332;2022-12-08T06:26:48;59.53;;;26.67;;
25581;SDS011;13462;50.764;4.332;2022-12-08T06:29:14;55.15;;;25.90;;
25581;SDS011;13462;50.764;4.332;2022-12-08T06:31:39;52.63;;;26.80;;
25581;SDS011;13462;50.764;4.332;2022-12-08T06:34:05;52.67;;;25.77;;
25581;SDS011;13462;50.764;4.332;2022-12-08T06:36:31;55.75;;;25.65;;
25581;SDS011;13462;50.764;4.332;2022-12-08T06:38:57;61.08;;;25.70;;
25581;SDS011;13462;50.764;4.332;2022-12-08T06:41:23;51.75;;;25.88;;
25581;SDS011;13462;50.764;4.332;2022-12-08T06:43:49;54.13;;;24.48;;
25581;SDS011;13462;50.764;4.332;2022-12-08T06:46:15;55.35;;;24.65;;
25581;SDS011;13462;50.764;4.332;2022-12-08T06:48:43;52.03;;;25.48;;
25581;SDS011;13462;50.764;4.332;2022-12-08T06:51:10;59.95;;;26.77;;
25581;SDS011;13462;50.764;4.332;2022-12-08T06:53:38;58.03;;;27.52;;
25581;SDS011;13462;50.764;4.332;2022-12-08T06:56:04;61.20;;;25.70;;
25581;SDS011;13462;50.764;4.332;2022-12-08T06:58:30;52.70;;;24.98;;
25581;SDS011;13462;50.764;4.332;2022-12-08T07:00:56;54.47;;;24.77;;
25581;SDS011;13462;50.764;4.332;2022-12-08T07:03:21;67.65;;;24.85;;
25581;SDS011;13462;50.764;4.332;2022-12-08T07:05:47;57.72;;;24.38;;
25581;SDS011;13462;50.764;4.332;2022-12-08T07:08:13;55.80;;;25.33;;
25581;SDS011;13462;50.764;4.332;2022-12-08T07:10:38;49.97;;;23.83;;
25581;SDS011;13462;50.764;4.332;2022-12-08T07:13:04;68.15;;;31.77;;
25581;SDS011;13462;50.764;4.332;2022-12-08T07:15:30;73.88;;;32.15;;
25581;SDS011;13462;50.764;4.332;2022-12-08T07:17:55;63.22;;;26.33;;
25581;SDS011;13462;50.764;4.332;2022-12-08T07:20:21;61.40;;;27.85;;
25581;SDS011;13462;50.764;4.332;2022-12-08T07:22:50;58.65;;;27.35;;
25581;SDS011;13462;50.764;4.332;2022-12-08T07:25:17;52.13;;;25.60;;
25581;SDS011;13462;50.764;4.332;2022-12-08T07:27:43;57.70;;;25.13;;
25581;SDS011;13462;50.764;4.332;2022-12-08T07:30:09;55.58;;;25.25;;
25581;SDS011;13462;50.764;4.332;2022-12-08T07:32:36;61.22;;;27.13;;
25581;SDS011;13462;50.764;4.332;2022-12-08T07:35:02;64.97;;;26.17;;
25581;SDS011;13462;50.764;4.332;2022-12-08T07:37:28;58.90;;;25.92;;
25581;SDS011;13462;50.764;4.332;2022-12-08T07:39:54;65.60;;;25.70;;
25581;SDS011;13462;50.764;4.332;2022-12-08T07:42:19;54.15;;;24.10;;
25581;SDS011;13462;50.764;4.332;2022-12-08T07:44:45;55.13;;;24.08;;
25581;SDS011;13462;50.764;4.332;2022-12-08T07:47:10;60.78;;;27.02;;
25581;SDS011;13462;50.764;4.332;2022-12-08T07:49:36;61.50;;;25.48;;
25581;SDS011;13462;50.764;4.332;2022-12-08T07:52:01;63.13;;;26.52;;
25581;SDS011;13462;50.764;4.332;2022-12-08T07:54:27;58.03;;;26.58;;
25581;SDS011;13462;50.764;4.332;2022-12-08T07:56:52;64.93;;;25.25;;
25581;SDS011;13462;50.764;4.332;2022-12-08T07:59:20;57.42;;;24.98;;
25581;SDS011;13462;50.764;4.332;2022-12-08T08:01:46;52.03;;;24.13;;
25581;SDS011;13462;50.764;4.332;2022-12-08T08:04:12;52.17;;;24.77;;
25581;SDS011;13462;50.764;4.332;2022-12-08T08:06:38;57.30;;;24.88;;
25581;SDS011;13462;50.764;4.332;2022-12-08T08:09:03;57.67;;;25.65;;
25581;SDS011;13462;50.764;4.332;2022-12-08T08:11:30;55.67;;;24.58;;
25581;SDS011;13462;50.764;4.332;2022-12-08T08:13:55;50.85;;;24.08;;
25581;SDS011;13462;50.764;4.332;2022-12-08T08:16:21;65.47;;;26.17;;
25581;SDS011;13462;50.764;4.332;2022-12-08T08:18:47;53.72;;;23.85;;
25581;SDS011;13462;50.764;4.332;2022-12-08T08:21:14;49.65;;;23.90;;
25581;SDS011;13462;50.764;4.332;2022-12-08T08:23:40;57.95;;;24.00;;
25581;SDS011;13462;50.764;4.332;2022-12-08T08:26:06;54.38;;;24.98;;
25581;SDS011;13462;50.764;4.332;2022-12-08T08:28:31;56.15;;;24.40;;
25581;SDS011;13462;50.764;4.332;2022-12-08T08:30:58;55.78;;;25.13;;
25581;SDS011;13462;50.764;4.332;2022-12-08T08:33:24;62.58;;;25.25;;
25581;SDS011;13462;50.764;4.332;2022-12-08T08:35:50;59.05;;;26.05;;
25581;SDS011;13462;50.764;4.332;2022-12-08T08:38:16;54.25;;;24.08;;
25581;SDS011;13462;50.764;4.332;2022-12-08T08:40:41;53.55;;;24.08;;
25581;SDS011;13462;50.764;4.332;2022-12-08T08:43:07;61.92;;;26.13;;
25581;SDS011;13462;50.764;4.332;2022-12-08T08:45:33;63.83;;;26.20;;
25581;SDS011;13462;50.764;4.332;2022-12-08T08:47:58;59.92;;;26.00;;
25581;SDS011;13462;50.764;4.332;2022-12-08T08:50:24;62.95;;;25.77;;
25581;SDS011;13462;50.764;4.332;2022-12-08T08:52:50;63.05;;;25.77;;
25581;SDS011;13462;50.764;4.332;2022-12-08T08:55:16;55.20;;;24.75;;
25581;SDS011;13462;50.764;4.332;2022-12-08T08:57:41;52.92;;;24.75;;
25581;SDS011;13462;50.764;4.332;2022-12-08T09:00:07;55.88;;;24.35;;
25581;SDS011;13462;50.764;4.332;2022-12-08T09:02:34;58.40;;;24.88;;
25581;SDS011;13462;50.764;4.332;2022-12-08T09:05:01;51.08;;;23.85;;
25581;SDS011;13462;50.764;4.332;2022-12-08T09:07:27;47.97;;;23.42;;
25581;SDS011;13462;50.764;4.332;2022-12-08T09:09:52;53.13;;;23.95;;
25581;SDS011;13462;50.764;4.332;2022-12-08T09:12:19;44.85;;;21.67;;
25581;SDS011;13462;50.764;4.332;2022-12-08T09:14:45;63.50;;;24.23;;
25581;SDS011;13462;50.764;4.332;2022-12-08T09:17:11;55.25;;;21.40;;
25581;SDS011;13462;50.764;4.332;2022-12-08T09:19:40;47.45;;;22.88;;
25581;SDS011;13462;50.764;4.332;2022-12-08T09:22:06;49.90;;;22.02;;
25581;SDS011;13462;50.764;4.332;2022-12-08T09:24:31;51.95;;;21.10;;
25581;SDS011;13462;50.764;4.332;2022-12-08T09:26:57;56.67;;;22.02;;
25581;SDS011;13462;50.764;4.332;2022-12-08T09:29:23;50.30;;;20.83;;
25581;SDS011;13462;50.764;4.332;2022-12-08T09:31:49;43.50;;;19.40;;
25581;SDS011;13462;50.764;4.332;2022-12-08T09:34:20;45.72;;;20.63;;
25581;SDS011;13462;50.764;4.332;2022-12-08T09:36:46;43.55;;;19.55;;
25581;SDS011;13462;50.764;4.332;2022-12-08T09:39:12;35.63;;;17.23;;
25581;SDS011;13462;50.764;4.332;2022-12-08T09:44:19;39.42;;;17.42;;
25581;SDS011;13462;50.764;4.332;2022-12-08T09:47:12;34.03;;;15.38;;
25581;SDS011;13462;50.764;4.332;2022-12-08T09:49:39;36.30;;;17.73;;
25581;SDS011;13462;50.764;4.332;2022-12-08T09:52:37;32.13;;;16.00;;
25581;SDS011;13462;50.764;4.332;2022-12-08T10:15:25;30.92;;;15.25;;
25581;SDS011;13462;50.764;4.332;2022-12-08T10:18:24;29.23;;;13.80;;
25581;SDS011;13462;50.764;4.332;2022-12-08T10:20:54;25.52;;;12.45;;
25581;SDS011;13462;50.764;4.332;2022-12-08T10:23:37;30.17;;;15.00;;
25581;SDS011;13462;50.764;4.332;2022-12-08T10:26:12;26.67;;;12.45;;
25581;SDS011;13462;50.764;4.332;2022-12-08T10:28:40;24.50;;;13.75;;
25581;SDS011;13462;50.764;4.332;2022-12-08T10:31:19;31.63;;;15.30;;
25581;SDS011;13462;50.764;4.332;2022-12-08T10:34:00;29.27;;;15.10;;
25581;SDS011;13462;50.764;4.332;2022-12-08T10:36:55;27.65;;;14.85;;
25581;SDS011;13462;50.764;4.332;2022-12-08T10:39:33;28.83;;;15.48;;
25581;SDS011;13462;50.764;4.332;2022-12-08T10:42:08;32.17;;;15.67;;
25581;SDS011;13462;50.764;4.332;2022-12-08T10:44:58;30.73;;;15.23;;
25581;SDS011;13462;50.764;4.332;2022-12-08T10:51:43;26.63;;;14.13;;
25581;SDS011;13462;50.764;4.332;2022-12-08T11:00:50;27.02;;;14.25;;
25581;SDS011;13462;50.764;4.332;2022-12-08T11:03:49;24.42;;;13.80;;
25581;SDS011;13462;50.764;4.332;2022-12-08T11:14:21;24.40;;;13.40;;
25581;SDS011;13462;50.764;4.332;2022-12-08T11:17:01;25.02;;;14.15;;
25581;SDS011;13462;50.764;4.332;2022-12-08T11:19:36;26.33;;;14.30;;
25581;SDS011;13462;50.764;4.332;2022-12-08T11:22:28;27.23;;;13.88;;
25581;SDS011;13462;50.764;4.332;2022-12-08T11:28:04;20.48;;;13.27;;
25581;SDS011;13462;50.764;4.332;2022-12-08T11:30:52;25.00;;;14.07;;
25581;SDS011;13462;50.764;4.332;2022-12-08T11:33:40;23.42;;;14.07;;
25581;SDS011;13462;50.764;4.332;2022-12-08T11:36:08;27.23;;;13.93;;
25581;SDS011;13462;50.764;4.332;2022-12-08T11:38:45;28.88;;;14.50;;
25581;SDS011;13462;50.764;4.332;2022-12-08T11:41:13;23.13;;;13.90;;
25581;SDS011;13462;50.764;4.332;2022-12-08T11:46:20;29.60;;;14.07;;
25581;SDS011;13462;50.764;4.332;2022-12-08T11:48:51;33.83;;;14.35;;
25581;SDS011;13462;50.764;4.332;2022-12-08T11:51:52;27.23;;;13.98;;
25581;SDS011;13462;50.764;4.332;2022-12-08T11:56:55;20.17;;;12.57;;
25581;SDS011;13462;50.764;4.332;2022-12-08T11:59:25;24.48;;;11.63;;
25581;SDS011;13462;50.764;4.332;2022-12-08T12:01:55;22.25;;;11.80;;
25581;SDS011;13462;50.764;4.332;2022-12-08T12:13:18;23.05;;;11.90;;
25581;SDS011;13462;50.764;4.332;2022-12-08T12:18:51;24.60;;;10.98;;
25581;SDS011;13462;50.764;4.332;2022-12-08T12:21:21;21.13;;;10.20;;
25581;SDS011;13462;50.764;4.332;2022-12-08T12:23:55;28.08;;;11.13;;
25581;SDS011;13462;50.764;4.332;2022-12-08T12:26:22;20.58;;;10.65;;
25581;SDS011;13462;50.764;4.332;2022-12-08T12:28:55;21.25;;;9.95;;
25581;SDS011;13462;50.764;4.332;2022-12-08T12:31:41;22.35;;;11.00;;
25581;SDS011;13462;50.764;4.332;2022-12-08T12:45:28;20.05;;;10.30;;
25581;SDS011;13462;50.764;4.332;2022-12-08T13:03:41;17.83;;;11.37;;
25581;SDS011;13462;50.764;4.332;2022-12-08T13:06:12;20.45;;;10.20;;
25581;SDS011;13462;50.764;4.332;2022-12-08T13:08:39;22.42;;;11.90;;
25581;SDS011;13462;50.764;4.332;2022-12-08T13:11:17;25.15;;;13.07;;
25581;SDS011;13462;50.764;4.332;2022-12-08T13:13:58;19.27;;;11.93;;
25581;SDS011;13462;50.764;4.332;2022-12-08T13:16:30;22.77;;;11.93;;
25581;SDS011;13462;50.764;4.332;2022-12-08T13:21:44;31.60;;;17.45;;
25581;SDS011;13462;50.764;4.332;2022-12-08T13:26:45;28.85;;;12.52;;
25581;SDS011;13462;50.764;4.332;2022-12-08T13:31:56;19.25;;;11.82;;
25581;SDS011;13462;50.764;4.332;2022-12-08T13:37:03;26.02;;;12.48;;
25581;SDS011;13462;50.764;4.332;2022-12-08T13:42:16;25.92;;;12.40;;
25581;SDS011;13462;50.764;4.332;2022-12-08T13:45:26;23.88;;;13.30;;
25581;SDS011;13462;50.764;4.332;2022-12-08T13:47:59;20.48;;;11.68;;
25581;SDS011;13462;50.764;4.332;2022-12-08T13:58:15;28.05;;;12.40;;
25581;SDS011;13462;50.764;4.332;2022-12-08T14:01:08;24.83;;;13.20;;
25581;SDS011;13462;50.764;4.332;2022-12-08T14:03:46;25.08;;;11.98;;
25581;SDS011;13462;50.764;4.332;2022-12-08T14:06:16;24.42;;;12.85;;
25581;SDS011;13462;50.764;4.332;2022-12-08T14:08:50;18.80;;;10.68;;
25581;SDS011;13462;50.764;4.332;2022-12-08T14:11:53;27.45;;;12.77;;
25581;SDS011;13462;50.764;4.332;2022-12-08T14:17:20;23.02;;;12.05;;
25581;SDS011;13462;50.764;4.332;2022-12-08T14:19:54;24.60;;;11.25;;
25581;SDS011;13462;50.764;4.332;2022-12-08T14:22:21;20.60;;;11.77;;
25581;SDS011;13462;50.764;4.332;2022-12-08T14:24:48;25.08;;;11.23;;
25581;SDS011;13462;50.764;4.332;2022-12-08T14:27:17;20.00;;;10.52;;
25581;SDS011;13462;50.764;4.332;2022-12-08T14:29:51;17.77;;;9.48;;
25581;SDS011;13462;50.764;4.332;2022-12-08T14:32:23;18.48;;;10.13;;
25581;SDS011;13462;50.764;4.332;2022-12-08T14:34:52;22.17;;;10.93;;
25581;SDS011;13462;50.764;4.332;2022-12-08T14:37:38;21.73;;;10.32;;
25581;SDS011;13462;50.764;4.332;2022-12-08T14:40:17;22.52;;;10.70;;
25581;SDS011;13462;50.764;4.332;2022-12-08T14:43:09;20.25;;;10.30;;
25581;SDS011;13462;50.764;4.332;2022-12-08T14:56:24;18.10;;;10.48;;
25581;SDS011;13462;50.764;4.332;2022-12-08T14:59:16;30.60;;;14.90;;
25581;SDS011;13462;50.764;4.332;2022-12-08T15:01:51;18.65;;;10.25;;
25581;SDS011;13462;50.764;4.332;2022-12-08T15:04:22;20.77;;;11.05;;
25581;SDS011;13462;50.764;4.332;2022-12-08T15:06:50;21.57;;;12.07;;
25581;SDS011;13462;50.764;4.332;2022-12-08T15:12:18;15.48;;;10.63;;
25581;SDS011;13462;50.764;4.332;2022-12-08T15:14:54;21.40;;;11.38;;
25581;SDS011;13462;50.764;4.332;2022-12-08T15:17:42;25.05;;;12.20;;
25581;SDS011;13462;50.764;4.332;2022-12-08T15:23:04;24.33;;;13.32;;
25581;SDS011;13462;50.764;4.332;2022-12-08T15:25:30;27.80;;;11.10;;
25581;SDS011;13462;50.764;4.332;2022-12-08T15:27:58;22.27;;;11.48;;
25581;SDS011;13462;50.764;4.332;2022-12-08T15:30:26;29.85;;;10.98;;
25581;SDS011;13462;50.764;4.332;2022-12-08T15:32:52;20.92;;;12.07;;
25581;SDS011;13462;50.764;4.332;2022-12-08T15:35:21;18.50;;;11.82;;
25581;SDS011;13462;50.764;4.332;2022-12-08T15:37:47;26.55;;;12.60;;
25581;SDS011;13462;50.764;4.332;2022-12-08T15:40:17;25.83;;;13.15;;
25581;SDS011;13462;50.764;4.332;2022-12-08T15:42:44;22.33;;;13.80;;
25581;SDS011;13462;50.764;4.332;2022-12-08T15:45:10;25.27;;;13.40;;
25581;SDS011;13462;50.764;4.332;2022-12-08T15:47:40;28.52;;;13.32;;
25581;SDS011;13462;50.764;4.332;2022-12-08T15:50:20;27.40;;;14.70;;
25581;SDS011;13462;50.764;4.332;2022-12-08T15:52:47;30.00;;;16.10;;
25581;SDS011;13462;50.764;4.332;2022-12-08T15:55:14;35.50;;;16.10;;
25581;SDS011;13462;50.764;4.332;2022-12-08T15:57:45;27.33;;;15.40;;
25581;SDS011;13462;50.764;4.332;2022-12-08T16:02:58;33.00;;;14.60;;
25581;SDS011;13462;50.764;4.332;2022-12-08T16:05:25;28.20;;;14.70;;
25581;SDS011;13462;50.764;4.332;2022-12-08T16:07:52;23.42;;;13.35;;
25581;SDS011;13462;50.764;4.332;2022-12-08T16:10:23;25.85;;;14.23;;
25581;SDS011;13462;50.764;4.332;2022-12-08T16:12:51;37.97;;;16.65;;
25581;SDS011;13462;50.764;4.332;2022-12-08T16:15:40;32.42;;;16.33;;
25581;SDS011;13462;50.764;4.332;2022-12-08T16:18:53;37.33;;;15.90;;
25581;SDS011;13462;50.764;4.332;2022-12-08T16:21:08;33.38;;;17.73;;
25581;SDS011;13462;50.764;4.332;2022-12-08T16:23:43;34.50;;;15.98;;
25581;SDS011;13462;50.764;4.332;2022-12-08T16:26:22;24.27;;;14.85;;
25581;SDS011;13462;50.764;4.332;2022-12-08T16:28:54;17.75;;;11.90;;
25581;SDS011;13462;50.764;4.332;2022-12-08T16:31:20;17.38;;;12.05;;
25581;SDS011;13462;50.764;4.332;2022-12-08T16:33:57;20.38;;;12.38;;
25581;SDS011;13462;50.764;4.332;2022-12-08T16:37:26;18.85;;;11.45;;
25581;SDS011;13462;50.764;4.332;2022-12-08T17:02:52;71.72;;;37.67;;
25581;SDS011;13462;50.764;4.332;2022-12-08T17:05:26;64.80;;;35.17;;
25581;SDS011;13462;50.764;4.332;2022-12-08T17:07:52;36.70;;;19.92;;
25581;SDS011;13462;50.764;4.332;2022-12-08T17:10:19;100.32;;;49.78;;
25581;SDS011;13462;50.764;4.332;2022-12-08T17:12:47;38.40;;;21.05;;
25581;SDS011;13462;50.764;4.332;2022-12-08T17:15:17;48.28;;;27.25;;
25581;SDS011;13462;50.764;4.332;2022-12-08T17:18:18;42.08;;;22.77;;
25581;SDS011;13462;50.764;4.332;2022-12-08T17:20:44;31.42;;;19.77;;
25581;SDS011;13462;50.764;4.332;2022-12-08T17:23:10;35.80;;;20.17;;
25581;SDS011;13462;50.764;4.332;2022-12-08T17:25:35;36.65;;;20.02;;
25581;SDS011;13462;50.764;4.332;2022-12-08T17:28:01;32.38;;;20.65;;
25581;SDS011;13462;50.764;4.332;2022-12-08T17:30:30;36.10;;;20.65;;
25581;SDS011;13462;50.764;4.332;2022-12-08T17:32:58;33.72;;;18.42;;
25581;SDS011;13462;50.764;4.332;2022-12-08T17:35:24;37.85;;;18.60;;
25581;SDS011;13462;50.764;4.332;2022-12-08T17:37:50;33.70;;;19.05;;
25581;SDS011;13462;50.764;4.332;2022-12-08T17:43:12;47.92;;;31.30;;
25581;SDS011;13462;50.764;4.332;2022-12-08T17:45:42;42.10;;;23.70;;
25581;SDS011;13462;50.764;4.332;2022-12-08T17:48:10;59.85;;;32.63;;
25581;SDS011;13462;50.764;4.332;2022-12-08T17:50:39;30.63;;;19.88;;
25581;SDS011;13462;50.764;4.332;2022-12-08T17:53:06;47.22;;;25.42;;
25581;SDS011;13462;50.764;4.332;2022-12-08T17:55:36;37.60;;;21.83;;
25581;SDS011;13462;50.764;4.332;2022-12-08T17:58:03;39.58;;;22.73;;
25581;SDS011;13462;50.764;4.332;2022-12-08T18:00:32;39.58;;;24.13;;
25581;SDS011;13462;50.764;4.332;2022-12-08T18:03:01;46.05;;;28.48;;
25581;SDS011;13462;50.764;4.332;2022-12-08T18:05:34;40.53;;;23.98;;
25581;SDS011;13462;50.764;4.332;2022-12-08T18:08:03;44.30;;;23.30;;
25581;SDS011;13462;50.764;4.332;2022-12-08T18:10:29;36.25;;;22.30;;
25581;SDS011;13462;50.764;4.332;2022-12-08T18:12:55;45.50;;;28.65;;
25581;SDS011;13462;50.764;4.332;2022-12-08T18:15:22;40.80;;;25.17;;
25581;SDS011;13462;50.764;4.332;2022-12-08T18:17:48;41.95;;;23.23;;
25581;SDS011;13462;50.764;4.332;2022-12-08T18:20:14;39.58;;;23.65;;
25581;SDS011;13462;50.764;4.332;2022-12-08T18:22:40;42.42;;;26.02;;
25581;SDS011;13462;50.764;4.332;2022-12-08T18:25:06;53.40;;;29.08;;
25581;SDS011;13462;50.764;4.332;2022-12-08T18:27:33;50.60;;;31.30;;
25581;SDS011;13462;50.764;4.332;2022-12-08T18:29:59;39.85;;;24.92;;
25581;SDS011;13462;50.764;4.332;2022-12-08T18:32:26;40.65;;;24.35;;
25581;SDS011;13462;50.764;4.332;2022-12-08T18:34:52;52.42;;;29.13;;
25581;SDS011;13462;50.764;4.332;2022-12-08T18:37:21;51.97;;;28.73;;
25581;SDS011;13462;50.764;4.332;2022-12-08T18:39:55;46.63;;;26.73;;
25581;SDS011;13462;50.764;4.332;2022-12-08T18:42:27;41.88;;;24.42;;
25581;SDS011;13462;50.764;4.332;2022-12-08T18:44:54;47.95;;;26.52;;
25581;SDS011;13462;50.764;4.332;2022-12-08T18:47:26;50.72;;;29.10;;
25581;SDS011;13462;50.764;4.332;2022-12-08T18:49:53;46.22;;;25.98;;
25581;SDS011;13462;50.764;4.332;2022-12-08T18:52:21;49.63;;;28.80;;
25581;SDS011;13462;50.764;4.332;2022-12-08T18:54:47;45.13;;;26.10;;
25581;SDS011;13462;50.764;4.332;2022-12-08T18:57:16;49.08;;;27.75;;
25581;SDS011;13462;50.764;4.332;2022-12-08T18:59:42;48.13;;;27.10;;
25581;SDS011;13462;50.764;4.332;2022-12-08T19:02:09;54.10;;;28.05;;
25581;SDS011;13462;50.764;4.332;2022-12-08T19:04:36;56.20;;;29.48;;
25581;SDS011;13462;50.764;4.332;2022-12-08T19:07:02;62.50;;;30.23;;
25581;SDS011;13462;50.764;4.332;2022-12-08T19:09:33;57.55;;;30.23;;
25581;SDS011;13462;50.764;4.332;2022-12-08T19:12:06;46.72;;;24.33;;
25581;SDS011;13462;50.764;4.332;2022-12-08T19:14:32;54.85;;;28.50;;
25581;SDS011;13462;50.764;4.332;2022-12-08T19:16:58;48.70;;;27.90;;
25581;SDS011;13462;50.764;4.332;2022-12-08T19:19:27;61.40;;;36.72;;
25581;SDS011;13462;50.764;4.332;2022-12-08T19:21:52;57.63;;;31.48;;
25581;SDS011;13462;50.764;4.332;2022-12-08T19:24:18;55.38;;;33.85;;
25581;SDS011;13462;50.764;4.332;2022-12-08T19:26:44;51.25;;;27.88;;
25581;SDS011;13462;50.764;4.332;2022-12-08T19:29:10;43.08;;;20.85;;
25581;SDS011;13462;50.764;4.332;2022-12-08T19:31:36;46.00;;;23.70;;
25581;SDS011;13462;50.764;4.332;2022-12-08T19:34:02;49.20;;;22.10;;
25581;SDS011;13462;50.764;4.332;2022-12-08T19:36:29;43.88;;;23.25;;
25581;SDS011;13462;50.764;4.332;2022-12-08T19:38:59;48.72;;;26.60;;
25581;SDS011;13462;50.764;4.332;2022-12-08T19:41:44;43.08;;;24.45;;
25581;SDS011;13462;50.764;4.332;2022-12-08T19:44:28;47.63;;;27.77;;
25581;SDS011;13462;50.764;4.332;2022-12-08T19:47:13;39.78;;;22.45;;
25581;SDS011;13462;50.764;4.332;2022-12-08T19:49:39;34.20;;;20.08;;
25581;SDS011;13462;50.764;4.332;2022-12-08T19:52:04;39.50;;;21.90;;
25581;SDS011;13462;50.764;4.332;2022-12-08T19:54:31;42.20;;;22.33;;
25581;SDS011;13462;50.764;4.332;2022-12-08T19:56:56;44.10;;;23.15;;
25581;SDS011;13462;50.764;4.332;2022-12-08T19:59:22;46.03;;;24.38;;
25581;SDS011;13462;50.764;4.332;2022-12-08T20:01:50;50.42;;;25.02;;
25581;SDS011;13462;50.764;4.332;2022-12-08T20:04:17;49.60;;;24.77;;
25581;SDS011;13462;50.764;4.332;2022-12-08T20:06:43;43.10;;;23.05;;
25581;SDS011;13462;50.764;4.332;2022-12-08T20:09:10;54.38;;;25.55;;
25581;SDS011;13462;50.764;4.332;2022-12-08T20:11:36;37.35;;;20.73;;
25581;SDS011;13462;50.764;4.332;2022-12-08T20:14:03;46.63;;;21.67;;